Time;durP1;ratioP1;P1;durP2;ratioP2;P2;SDS_P1;SDS_P2;PMS_P1;PMS_P2;Temp;Humidity;BMP_temperature;BMP_pressure;BME280_temperature;BME280_humidity;BME280_pressure;Samples;Min_cycle;Max_cycle;Signal;HPM_P1;HPM_P2
2023/08/05 00:00:38;;;;;;;5.78;4.57;;;;;;;14.37;100.00;101650.84;5102210;28;20460;-55
2023/08/05 00:03:03;;;;;;;8.10;4.60;;;;;;;14.39;100.00;101642.72;5096646;28;20066;-55
2023/08/05 00:05:29;;;;;;;8.02;4.68;;;;;;;14.40;100.00;101644.41;5094448;28;20510;-55
2023/08/05 00:07:54;;;;;;;8.27;5.25;;;;;;;14.38;100.00;101638.34;5095129;28;20076;-55
2023/08/05 00:10:19;;;;;;;11.18;4.95;;;;;;;14.40;100.00;101636.38;5098008;28;20023;-54
2023/08/05 00:12:45;;;;;;;8.65;4.78;;;;;;;14.39;100.00;101632.03;5098518;28;20028;-56
2023/08/05 00:15:10;;;;;;;8.48;5.00;;;;;;;14.39;100.00;101619.50;5102749;28;20126;-56
2023/08/05 00:17:35;;;;;;;8.45;4.90;;;;;;;14.40;100.00;101626.53;5098985;28;20024;-56
2023/08/05 00:20:01;;;;;;;9.43;5.43;;;;;;;14.38;100.00;101625.81;5097089;28;20028;-54
2023/08/05 00:22:26;;;;;;;6.15;5.03;;;;;;;14.39;100.00;101626.69;5098370;28;20036;-55
2023/08/05 00:24:52;;;;;;;6.30;5.53;;;;;;;14.42;100.00;101623.75;5097263;28;20107;-56
2023/08/05 00:27:17;;;;;;;8.68;5.18;;;;;;;14.42;100.00;101629.09;5098503;28;20039;-55
2023/08/05 00:29:43;;;;;;;8.48;5.15;;;;;;;14.42;100.00;101621.06;5097036;28;20097;-54
2023/08/05 00:32:08;;;;;;;6.82;5.00;;;;;;;14.44;100.00;101625.34;5098560;28;20035;-55
2023/08/05 00:34:36;;;;;;;7.82;5.25;;;;;;;14.46;100.00;101619.03;5091535;28;20020;-55
2023/08/05 00:37:01;;;;;;;10.32;5.22;;;;;;;14.46;100.00;101616.34;5096438;28;20451;-55
2023/08/05 00:39:26;;;;;;;7.30;5.00;;;;;;;14.45;100.00;101618.16;5095068;28;20024;-54
2023/08/05 00:41:52;;;;;;;6.95;5.30;;;;;;;14.42;100.00;101613.91;5093376;28;20036;-54
2023/08/05 00:44:17;;;;;;;5.80;5.10;;;;;;;14.46;100.00;101613.69;5096870;28;20024;-56
2023/08/05 00:46:42;;;;;;;8.07;5.47;;;;;;;14.43;100.00;101606.75;5097270;28;20031;-55
2023/08/05 00:49:09;;;;;;;6.32;5.72;;;;;;;14.42;100.00;101603.22;5091931;28;20058;-54
2023/08/05 00:51:34;;;;;;;7.47;5.43;;;;;;;14.41;100.00;101601.53;5095610;28;20035;-56
2023/08/05 00:54:00;;;;;;;6.40;4.80;;;;;;;14.43;100.00;101598.72;5095602;28;20016;-54
2023/08/05 00:56:25;;;;;;;7.57;5.50;;;;;;;14.42;100.00;101594.34;5102158;28;20334;-55
2023/08/05 00:58:50;;;;;;;7.82;5.70;;;;;;;14.39;100.00;101597.28;5098924;28;20477;-55
2023/08/05 01:01:16;;;;;;;5.85;5.25;;;;;;;14.41;100.00;101595.34;5097972;28;20051;-54
2023/08/05 01:03:42;;;;;;;7.63;5.18;;;;;;;14.41;100.00;101598.84;5100270;28;20370;-55
2023/08/05 01:06:07;;;;;;;7.35;4.70;;;;;;;14.42;100.00;101594.34;5097951;28;20107;-54
2023/08/05 01:08:34;;;;;;;8.80;5.25;;;;;;;14.42;100.00;101594.34;5095632;28;20104;-56
2023/08/05 01:11:00;;;;;;;8.70;5.30;;;;;;;14.38;100.00;101588.41;5098900;28;20066;-55
2023/08/05 01:13:26;;;;;;;9.73;6.13;;;;;;;14.39;100.00;101587.44;5091893;28;20028;-55
2023/08/05 01:15:51;;;;;;;10.63;6.30;;;;;;;14.37;100.00;101581.38;5095114;28;20596;-55
2023/08/05 01:18:17;;;;;;;7.00;5.65;;;;;;;14.38;100.00;101583.06;5095293;28;20047;-54
2023/08/05 01:20:47;;;;;;;8.50;5.50;;;;;;;14.34;100.00;101576.28;5097336;28;20038;-55
2023/08/05 01:23:40;;;;;;;6.30;5.70;;;;;;;14.44;100.00;101577.22;5099944;28;20043;-54
2023/08/05 01:26:07;;;;;;;9.20;5.82;;;;;;;14.38;100.00;101575.03;5096870;28;20032;-54
2023/08/05 01:28:34;;;;;;;7.45;5.45;;;;;;;14.39;100.00;101578.59;5097397;28;20032;-55
2023/08/05 01:31:01;;;;;;;8.43;6.05;;;;;;;14.36;100.00;101581.50;5095416;28;20039;-53
2023/08/05 01:33:27;;;;;;;11.52;6.15;;;;;;;14.35;100.00;101574.44;5100799;28;20027;-54
2023/08/05 01:35:52;;;;;;;7.57;5.95;;;;;;;14.36;100.00;101570.81;5091232;28;20036;-56
2023/08/05 01:38:17;;;;;;;6.68;5.97;;;;;;;14.31;100.00;101575.69;5101605;28;20061;-53
2023/08/05 01:40:44;;;;;;;8.68;6.32;;;;;;;14.29;100.00;101570.47;5094454;28;20232;-55
2023/08/05 01:43:10;;;;;;;11.60;5.75;;;;;;;14.32;100.00;101580.91;5098325;28;20135;-54
2023/08/05 01:45:35;;;;;;;6.60;5.85;;;;;;;14.27;100.00;101568.88;5097998;28;20099;-52
2023/08/05 01:48:00;;;;;;;7.25;5.38;;;;;;;14.30;100.00;101579.31;5093686;28;20043;-55
2023/08/05 01:50:26;;;;;;;7.50;6.43;;;;;;;14.26;100.00;101573.38;5096010;28;20099;-55
2023/08/05 01:52:53;;;;;;;7.05;5.93;;;;;;;14.24;100.00;101581.50;5093220;28;20074;-53
2023/08/05 01:55:18;;;;;;;8.25;5.95;;;;;;;14.19;100.00;101578.34;5096131;28;20496;-54
2023/08/05 01:57:44;;;;;;;12.20;6.10;;;;;;;14.20;100.00;101580.03;5099565;28;20110;-55
2023/08/05 02:00:09;;;;;;;8.75;5.60;;;;;;;14.20;100.00;101576.53;5094205;28;20024;-53
2023/08/05 02:02:34;;;;;;;7.70;6.05;;;;;;;14.17;100.00;101580.31;5098155;28;20032;-55
2023/08/05 02:05:00;;;;;;;8.93;6.47;;;;;;;14.16;100.00;101577.75;5096596;28;20070;-53
2023/08/05 02:07:25;;;;;;;10.52;6.03;;;;;;;14.16;100.00;101575.94;5096122;28;20118;-54
2023/08/05 02:09:50;;;;;;;11.82;7.35;;;;;;;14.11;100.00;101572.78;5094500;28;20028;-53
2023/08/05 02:12:16;;;;;;;7.53;6.47;;;;;;;14.06;100.00;101569.63;5095192;28;20030;-55
2023/08/05 02:14:41;;;;;;;6.90;6.20;;;;;;;14.12;100.00;101581.63;5100576;28;20024;-55
2023/08/05 02:17:06;;;;;;;8.43;6.97;;;;;;;14.05;100.00;101578.59;5099897;28;20116;-53
2023/08/05 02:19:32;;;;;;;7.13;6.45;;;;;;;14.04;100.00;101572.41;5099201;28;20048;-54
2023/08/05 02:21:57;;;;;;;9.13;7.32;;;;;;;14.02;100.00;101568.16;5099208;28;20024;-53
2023/08/05 02:24:22;;;;;;;8.55;6.75;;;;;;;14.02;100.00;101565.47;5094470;28;20089;-55
2023/08/05 02:26:47;;;;;;;7.50;6.50;;;;;;;13.98;100.00;101567.56;5098120;28;20436;-52
2023/08/05 02:29:13;;;;;;;7.97;6.80;;;;;;;13.95;100.00;101561.63;5096612;28;20028;-55
2023/08/05 02:31:38;;;;;;;8.75;6.90;;;;;;;13.95;100.00;101569.63;5101823;28;20172;-53
2023/08/05 02:34:03;;;;;;;7.93;6.68;;;;;;;13.88;100.00;101559.41;5101766;28;20639;-55
2023/08/05 02:36:28;;;;;;;7.35;6.63;;;;;;;13.88;100.00;101558.59;5103096;28;20023;-55
2023/08/05 02:38:54;;;;;;;10.30;6.88;;;;;;;13.84;100.00;101547.31;5103866;28;20037;-55
2023/08/05 02:41:19;;;;;;;8.77;7.18;;;;;;;13.80;100.00;101553.84;5102600;28;20024;-55
2023/08/05 02:43:44;;;;;;;11.15;7.80;;;;;;;13.80;100.00;101555.66;5097929;28;20092;-52
2023/08/05 02:46:10;;;;;;;9.93;7.35;;;;;;;13.77;100.00;101550.56;5102101;28;20047;-55
2023/08/05 02:48:35;;;;;;;8.40;7.43;;;;;;;13.77;100.00;101543.44;5103763;28;20016;-55
2023/08/05 02:51:00;;;;;;;10.82;7.90;;;;;;;13.74;100.00;101548.13;5102184;28;20478;-55
2023/08/05 02:53:27;;;;;;;9.20;7.50;;;;;;;13.74;100.00;101546.34;5096582;28;20043;-55
2023/08/05 02:55:53;;;;;;;8.55;7.28;;;;;;;13.69;100.00;101545.84;5094620;28;20035;-55
2023/08/05 02:58:19;;;;;;;9.27;8.18;;;;;;;13.64;100.00;101540.03;5100748;28;20099;-54
2023/08/05 03:00:45;;;;;;;13.77;7.40;;;;;;;13.65;100.00;101542.53;5097471;28;20058;-55
2023/08/05 03:03:11;;;;;;;11.80;7.97;;;;;;;13.61;100.00;101549.09;5103681;28;20081;-55
2023/08/05 03:05:36;;;;;;;11.27;7.85;;;;;;;13.59;100.00;101545.72;5100360;28;20412;-55
2023/08/05 03:08:02;;;;;;;9.23;7.78;;;;;;;13.57;100.00;101539.63;5103096;28;20541;-53
2023/08/05 03:10:28;;;;;;;9.63;8.10;;;;;;;13.54;100.00;101533.69;5097664;28;20046;-54
2023/08/05 03:12:53;;;;;;;10.98;7.72;;;;;;;13.55;100.00;101517.56;5103657;28;20568;-54
2023/08/05 03:15:18;;;;;;;9.43;7.55;;;;;;;13.56;100.00;101515.75;5098977;28;20077;-53
2023/08/05 03:17:44;;;;;;;9.85;8.45;;;;;;;13.49;100.00;101520.72;5098583;28;20035;-56
2023/08/05 03:20:27;;;;;;;10.65;7.68;;;;;;;13.55;100.00;101522.06;5099211;28;20505;-53
2023/08/05 03:22:53;;;;;;;9.50;7.97;;;;;;;13.49;100.00;101513.56;5094870;28;20028;-55
2023/08/05 03:25:21;;;;;;;11.95;8.35;;;;;;;13.47;100.00;101517.31;5097245;28;20020;-53
2023/08/05 03:27:47;;;;;;;10.10;8.32;;;;;;;13.44;100.00;101505.06;5088549;28;20481;-56
2023/08/05 03:30:12;;;;;;;10.35;8.18;;;;;;;13.45;100.00;101513.91;5096942;28;20850;-54
2023/08/05 03:32:38;;;;;;;11.75;8.75;;;;;;;13.40;100.00;101506.25;5099270;28;20066;-55
2023/08/05 03:35:03;;;;;;;11.07;8.55;;;;;;;13.38;100.00;101513.53;5096539;28;20032;-56
2023/08/05 03:37:29;;;;;;;11.38;9.07;;;;;;;13.39;100.00;101503.69;5099687;28;20034;-55
2023/08/05 03:39:54;;;;;;;10.52;8.68;;;;;;;13.35;100.00;101511.09;5100766;28;20016;-53
2023/08/05 03:42:19;;;;;;;8.57;7.65;;;;;;;13.37;100.00;101500.31;5099524;27;20402;-56
2023/08/05 03:44:45;;;;;;;11.85;8.82;;;;;;;13.36;100.00;101491.47;5095917;28;20435;-56
2023/08/05 03:47:10;;;;;;;11.30;8.50;;;;;;;13.36;100.00;101482.63;5102055;28;20470;-54
2023/08/05 03:49:35;;;;;;;8.90;8.10;;;;;;;13.33;100.00;101481.03;5098809;28;20016;-53
2023/08/05 03:52:02;;;;;;;11.50;8.75;;;;;;;13.30;100.00;101489.25;5098002;28;20039;-55
2023/08/05 03:54:27;;;;;;;9.60;8.60;;;;;;;13.29;100.00;101482.22;5095374;28;20031;-53
2023/08/05 03:56:53;;;;;;;13.82;9.13;;;;;;;13.26;100.00;101477.13;5097725;28;20032;-53
2023/08/05 03:59:20;;;;;;;11.52;8.90;;;;;;;13.26;100.00;101472.63;5098486;28;20047;-55
2023/08/05 04:01:45;;;;;;;9.35;8.40;;;;;;;13.23;100.00;101464.84;5101480;28;20028;-56
2023/08/05 04:04:11;;;;;;;9.40;8.52;;;;;;;13.26;100.00;101469.97;5095613;28;20024;-56
2023/08/05 04:06:36;;;;;;;9.07;8.10;;;;;;;13.22;100.00;101459.63;5097773;28;20048;-54
2023/08/05 04:09:01;;;;;;;10.55;9.18;;;;;;;13.22;100.00;101464.97;5094210;28;20069;-54
2023/08/05 04:11:27;;;;;;;11.00;8.95;;;;;;;13.20;100.00;101466.91;5098144;28;20020;-52
2023/08/05 04:13:55;;;;;;;9.73;8.38;;;;;;;13.23;100.00;101472.03;5098849;28;20537;-51
2023/08/05 04:16:22;;;;;;;14.52;9.00;;;;;;;13.22;100.00;101467.63;5102581;28;20055;-51
2023/08/05 04:18:48;;;;;;;11.27;9.10;;;;;;;13.20;100.00;101474.91;5096401;28;20470;-51
2023/08/05 04:21:14;;;;;;;13.20;9.40;;;;;;;13.22;100.00;101475.66;5098966;28;20023;-51
2023/08/05 04:23:41;;;;;;;12.43;9.25;;;;;;;13.20;100.00;101453.59;5092321;28;20027;-50
2023/08/05 04:26:07;;;;;;;11.80;8.98;;;;;;;13.20;100.00;101441.09;5099090;28;20036;-51
2023/08/05 04:28:33;;;;;;;11.82;9.80;;;;;;;13.14;100.00;101434.44;5095292;28;20020;-51
2023/08/05 04:30:58;;;;;;;12.07;8.77;;;;;;;13.12;100.00;101436.38;5097769;28;20040;-52
2023/08/05 04:33:27;;;;;;;12.93;9.48;;;;;;;13.08;100.00;101424.22;5090231;28;20378;-51
2023/08/05 04:35:53;;;;;;;11.95;9.52;;;;;;;13.11;100.00;101429.31;5091657;28;20093;-51
2023/08/05 04:38:18;;;;;;;10.68;9.40;;;;;;;13.13;100.00;101434.53;5096241;28;20478;-51
2023/08/05 04:40:45;;;;;;;10.48;9.35;;;;;;;13.11;100.00;101426.66;5097957;28;20046;-51
2023/08/05 04:43:11;;;;;;;12.68;10.05;;;;;;;13.14;100.00;101418.41;5094855;28;20050;-53
2023/08/05 04:45:37;;;;;;;11.48;9.85;;;;;;;13.12;100.00;101414.16;5098827;28;20031;-52
2023/08/05 04:48:04;;;;;;;12.43;9.95;;;;;;;13.09;100.00;101415.28;5098843;28;20374;-54
2023/08/05 04:50:29;;;;;;;11.82;9.73;;;;;;;13.10;100.00;101418.78;5097474;28;20076;-52
2023/08/05 04:52:55;;;;;;;11.10;9.77;;;;;;;13.11;100.00;101416.00;5096134;28;20544;-53
2023/08/05 04:55:20;;;;;;;11.02;9.57;;;;;;;13.11;100.00;101420.47;5101072;28;20024;-52
2023/08/05 04:57:50;;;;;;;11.30;9.77;;;;;;;13.10;100.00;101422.28;5092131;28;20401;-52
2023/08/05 05:00:15;;;;;;;10.88;9.38;;;;;;;13.10;100.00;101416.94;5102201;28;20032;-51
2023/08/05 05:02:41;;;;;;;11.02;9.88;;;;;;;13.11;100.00;101415.16;5091482;28;20093;-51
2023/08/05 05:05:06;;;;;;;18.30;10.25;;;;;;;13.13;100.00;101418.53;5095790;28;20028;-53
2023/08/05 05:07:32;;;;;;;13.50;9.85;;;;;;;13.13;100.00;101426.53;5093059;28;20035;-54
2023/08/05 05:09:57;;;;;;;13.90;9.82;;;;;;;13.17;100.00;101421.81;5098078;28;20024;-55
2023/08/05 05:12:22;;;;;;;13.32;10.30;;;;;;;13.15;100.00;101413.94;5093688;28;20058;-52
2023/08/05 05:14:48;;;;;;;10.57;9.48;;;;;;;13.17;100.00;101417.31;5096634;28;20030;-52
2023/08/05 05:17:17;;;;;;;10.45;9.30;;;;;;;13.18;100.00;101419.03;5094134;28;20031;-52
2023/08/05 05:19:43;;;;;;;12.23;9.90;;;;;;;13.17;100.00;101411.97;5092704;28;20440;-52
2023/08/05 05:22:14;;;;;;;11.63;9.90;;;;;;;13.18;100.00;101412.84;5094257;28;20020;-53
2023/08/05 05:24:40;;;;;;;13.25;10.35;;;;;;;13.21;100.00;101413.44;5097510;28;20059;-50
2023/08/05 05:27:05;;;;;;;13.40;9.68;;;;;;;13.24;100.00;101415.00;5092295;28;20117;-53
2023/08/05 05:29:31;;;;;;;15.18;10.20;;;;;;;13.24;100.00;101412.34;5091958;28;20051;-52
2023/08/05 05:31:56;;;;;;;13.32;11.10;;;;;;;13.23;100.00;101400.00;5095552;28;20031;-51
2023/08/05 05:34:21;;;;;;;14.50;10.85;;;;;;;13.26;100.00;101405.09;5094346;28;20036;-52
2023/08/05 05:36:46;;;;;;;17.33;10.48;;;;;;;13.28;100.00;101411.16;5094087;28;20087;-53
2023/08/05 05:39:12;;;;;;;14.90;10.65;;;;;;;13.32;100.00;101402.81;5096301;28;20364;-52
2023/08/05 05:41:37;;;;;;;13.50;11.25;;;;;;;13.37;100.00;101394.44;5094792;28;20030;-50
2023/08/05 05:44:04;;;;;;;16.08;11.80;;;;;;;13.41;100.00;101392.38;5094326;28;20529;-52
2023/08/05 05:46:32;;;;;;;13.70;10.73;;;;;;;13.46;100.00;101400.88;5096034;28;20048;-54
2023/08/05 05:48:57;;;;;;;13.68;11.38;;;;;;;13.55;100.00;101388.59;5101929;27;20032;-54
2023/08/05 05:51:22;;;;;;;15.95;11.88;;;;;;;13.60;100.00;101397.94;5100235;28;20024;-54
2023/08/05 05:53:49;;;;;;;14.52;11.05;;;;;;;13.70;100.00;101395.38;5097710;28;20101;-51
2023/08/05 05:56:14;;;;;;;14.07;11.45;;;;;;;13.81;100.00;101390.00;5097443;28;20358;-53
2023/08/05 05:58:39;;;;;;;15.82;11.77;;;;;;;13.91;100.00;101384.75;5100537;28;20026;-51
2023/08/05 06:01:05;;;;;;;12.95;10.52;;;;;;;14.01;100.00;101380.34;5101024;28;20377;-54
2023/08/05 06:03:33;;;;;;;14.25;11.38;;;;;;;14.08;100.00;101386.03;5101313;28;20047;-51
2023/08/05 06:05:59;;;;;;;11.87;10.67;;;;;;;14.13;100.00;101381.16;5092622;28;20398;-54
2023/08/05 06:08:24;;;;;;;15.48;11.45;;;;;;;14.22;100.00;101384.88;5095636;28;20290;-53
2023/08/05 06:10:49;;;;;;;16.52;11.27;;;;;;;14.27;100.00;101381.84;5098567;28;20032;-53
2023/08/05 06:13:16;;;;;;;13.43;10.52;;;;;;;14.30;100.00;101373.56;5093281;28;20035;-53
2023/08/05 06:15:42;;;;;;;11.75;10.23;;;;;;;14.35;100.00;101377.53;5093181;28;20037;-52
2023/08/05 06:18:10;;;;;;;13.45;10.55;;;;;;;14.38;100.00;101377.28;5100291;28;20023;-55
2023/08/05 06:20:36;;;;;;;12.65;10.75;;;;;;;14.43;100.00;101380.41;5091482;28;20028;-53
2023/08/05 06:23:01;;;;;;;11.95;10.02;;;;;;;14.50;100.00;101374.56;5095175;28;20035;-51
2023/08/05 06:25:27;;;;;;;15.13;9.88;;;;;;;14.54;100.00;101378.69;5097348;28;20114;-51
2023/08/05 06:27:53;;;;;;;12.13;9.48;;;;;;;14.58;100.00;101372.06;5094505;28;20036;-55
2023/08/05 06:30:18;;;;;;;13.32;9.57;;;;;;;14.63;100.00;101372.56;5094835;28;20028;-54
2023/08/05 06:32:43;;;;;;;11.65;9.60;;;;;;;14.70;100.00;101376.38;5095859;28;20032;-53
2023/08/05 06:35:09;;;;;;;11.35;9.35;;;;;;;14.76;100.00;101367.00;5095963;28;20115;-54
2023/08/05 06:37:34;;;;;;;12.70;9.25;;;;;;;14.83;100.00;101362.81;5092964;28;20054;-53
2023/08/05 06:39:59;;;;;;;13.05;9.23;;;;;;;14.88;100.00;101373.97;5095031;28;20028;-54
2023/08/05 06:42:26;;;;;;;13.55;9.95;;;;;;;14.93;100.00;101369.06;5096266;28;20082;-54
2023/08/05 06:44:51;;;;;;;13.20;9.63;;;;;;;14.96;100.00;101354.59;5095144;28;20016;-52
2023/08/05 06:47:16;;;;;;;10.40;9.18;;;;;;;15.03;100.00;101360.25;5097063;28;20092;-52
2023/08/05 06:49:42;;;;;;;12.98;9.10;;;;;;;15.11;100.00;101363.94;5096089;28;20020;-50
2023/08/05 06:52:07;;;;;;;10.70;9.60;;;;;;;15.20;100.00;101367.63;5094184;28;20031;-51
2023/08/05 06:54:33;;;;;;;14.73;9.55;;;;;;;15.26;100.00;101355.56;5096538;28;20026;-52
2023/08/05 06:56:58;;;;;;;11.70;9.40;;;;;;;15.39;100.00;101363.31;5095950;28;20543;-53
2023/08/05 06:59:23;;;;;;;14.88;10.05;;;;;;;15.46;100.00;101348.44;5088098;28;20036;-52
2023/08/05 07:01:49;;;;;;;13.60;9.80;;;;;;;15.61;100.00;101346.22;5091430;28;20081;-51
2023/08/05 07:04:14;;;;;;;12.63;10.10;;;;;;;15.77;100.00;101348.38;5095899;27;20020;-53
2023/08/05 07:06:41;;;;;;;14.77;9.32;;;;;;;15.84;100.00;101350.34;5092309;28;20076;-52
2023/08/05 07:09:06;;;;;;;12.43;8.63;;;;;;;15.98;100.00;101340.22;5093131;28;20046;-51
2023/08/05 07:11:31;;;;;;;15.85;8.90;;;;;;;16.03;100.00;101330.75;5091475;28;20541;-53
2023/08/05 07:13:57;;;;;;;9.57;7.85;;;;;;;16.21;100.00;101341.59;5092982;28;20089;-50
2023/08/05 07:16:22;;;;;;;9.18;8.02;;;;;;;16.31;100.00;101346.97;5095388;28;20024;-51
2023/08/05 07:18:47;;;;;;;8.55;7.25;;;;;;;16.43;100.00;101351.16;5096331;28;20028;-49
2023/08/05 07:21:15;;;;;;;9.13;8.23;;;;;;;16.60;100.00;101349.59;5102227;28;20462;-50
2023/08/05 07:23:40;;;;;;;11.02;8.07;;;;;;;16.74;100.00;101342.94;5097305;28;20359;-50
2023/08/05 07:26:05;;;;;;;12.15;7.88;;;;;;;16.89;100.00;101337.97;5095901;28;20042;-50
2023/08/05 07:28:31;;;;;;;9.73;7.97;;;;;;;16.99;100.00;101336.09;5098895;28;20107;-51
2023/08/05 07:31:08;;;;;;;8.27;7.03;;;;;;;17.09;100.00;101345.94;5098607;28;20035;-50
2023/08/05 07:33:34;;;;;;;9.00;7.38;;;;;;;17.16;100.00;101339.81;5093732;28;20034;-50
2023/08/05 07:36:12;;;;;;;9.35;6.70;;;;;;;17.29;100.00;101338.66;5096343;28;20028;-51
2023/08/05 07:38:42;;;;;;;7.75;6.90;;;;;;;17.43;100.00;101343.50;5095994;28;20470;-51
2023/08/05 07:41:07;;;;;;;10.60;7.72;;;;;;;17.53;98.72;101335.38;5089368;28;20046;-51
2023/08/05 07:43:35;;;;;;;7.80;7.00;;;;;;;17.60;97.29;101327.56;5098191;28;20494;-50
2023/08/05 07:46:05;;;;;;;9.02;7.15;;;;;;;17.75;96.87;101332.28;5100641;28;20020;-50
2023/08/05 07:48:40;;;;;;;8.02;7.22;;;;;;;17.91;96.27;101328.09;5097055;28;20026;-51
2023/08/05 07:51:06;;;;;;;8.20;7.22;;;;;;;18.00;96.28;101324.47;5098550;28;20099;-51
2023/08/05 07:53:35;;;;;;;8.98;6.70;;;;;;;18.02;92.17;101314.41;5097674;28;20024;-51
2023/08/05 07:56:08;;;;;;;9.20;6.68;;;;;;;18.14;95.19;101312.31;5094711;28;20024;-51
2023/08/05 07:58:33;;;;;;;9.88;6.88;;;;;;;18.38;93.20;101308.13;5094781;28;20521;-53
2023/08/05 08:00:59;;;;;;;9.68;6.53;;;;;;;18.64;91.65;101298.22;5095963;28;20024;-53
2023/08/05 08:03:28;;;;;;;8.73;5.80;;;;;;;18.93;91.85;101294.34;5097850;28;20397;-51
2023/08/05 08:05:54;;;;;;;7.63;5.82;;;;;;;19.09;88.51;101290.06;5092331;28;20035;-52
2023/08/05 08:08:20;;;;;;;9.02;5.93;;;;;;;19.19;87.08;101286.19;5092744;28;20051;-50
2023/08/05 08:10:46;;;;;;;7.57;4.63;;;;;;;19.25;86.81;101284.69;5092492;28;20389;-51
2023/08/05 08:13:11;;;;;;;6.30;5.03;;;;;;;19.22;84.11;101282.34;5092533;28;20119;-50
2023/08/05 08:15:36;;;;;;;6.93;4.50;;;;;;;19.29;86.19;101288.75;5096709;28;20103;-51
2023/08/05 08:18:02;;;;;;;5.90;4.40;;;;;;;19.33;85.70;101282.03;5092354;28;20060;-52
2023/08/05 08:20:27;;;;;;;7.47;3.55;;;;;;;19.38;83.88;101278.84;5086797;28;20118;-52
2023/08/05 08:22:52;;;;;;;6.28;3.80;;;;;;;19.39;83.56;101273.28;5094025;28;20031;-51
2023/08/05 08:25:17;;;;;;;5.53;3.78;;;;;;;19.38;83.56;101277.00;5097286;28;20077;-51
2023/08/05 08:27:43;;;;;;;6.97;4.00;;;;;;;19.36;85.13;101265.53;5096655;28;20594;-51
2023/08/05 08:30:10;;;;;;;7.20;3.40;;;;;;;19.38;82.42;101274.31;5098277;28;20031;-51
2023/08/05 08:32:35;;;;;;;4.93;3.22;;;;;;;19.42;83.32;101266.75;5091685;28;20031;-52
2023/08/05 08:35:00;;;;;;;7.93;3.45;;;;;;;19.70;81.31;101258.34;5094615;28;20525;-51
2023/08/05 08:37:26;;;;;;;3.97;3.20;;;;;;;19.93;81.23;101264.81;5097278;28;20030;-52
2023/08/05 08:39:51;;;;;;;7.28;3.00;;;;;;;20.14;80.63;101255.34;5094109;28;20030;-50
2023/08/05 08:42:19;;;;;;;3.88;2.67;;;;;;;20.27;78.50;101244.03;5090128;28;20047;-53
2023/08/05 08:44:45;;;;;;;4.10;2.97;;;;;;;20.47;77.61;101247.19;5070995;28;20028;-51
2023/08/05 08:47:11;;;;;;;4.85;2.90;;;;;;;20.80;77.33;101234.44;5097916;28;20469;-50
2023/08/05 08:49:37;;;;;;;4.20;2.30;;;;;;;21.04;78.31;101233.47;5097069;28;20515;-50
2023/08/05 08:52:03;;;;;;;7.72;3.00;;;;;;;21.01;72.14;101235.69;5097653;28;20036;-51
2023/08/05 08:54:30;;;;;;;4.65;3.10;;;;;;;21.10;75.10;101231.94;5089718;28;20786;-54
2023/08/05 08:56:55;;;;;;;5.72;2.80;;;;;;;21.15;75.01;101234.94;5095808;28;20030;-54
2023/08/05 08:59:20;;;;;;;4.97;2.67;;;;;;;21.10;72.33;101229.25;5091031;28;20023;-52
2023/08/05 09:01:48;;;;;;;3.58;3.03;;;;;;;21.10;73.28;101226.53;5092246;28;20051;-50
2023/08/05 09:04:15;;;;;;;3.88;3.00;;;;;;;21.13;74.06;101222.63;5095173;28;20095;-49
2023/08/05 09:06:42;;;;;;;4.22;2.83;;;;;;;21.15;73.32;101215.19;5090890;28;20024;-49
2023/08/05 09:09:07;;;;;;;4.28;3.00;;;;;;;21.24;72.17;101206.03;5094614;28;20106;-49
2023/08/05 09:11:33;;;;;;;5.63;2.97;;;;;;;21.21;72.73;101201.81;5095591;28;20461;-48
2023/08/05 09:13:58;;;;;;;6.90;2.88;;;;;;;21.16;72.21;101206.91;5089838;28;20028;-48
2023/08/05 09:16:26;;;;;;;4.07;2.95;;;;;;;21.01;71.32;101206.00;5095967;28;20035;-48
2023/08/05 09:18:55;;;;;;;4.88;2.92;;;;;;;20.80;72.20;101195.78;5095493;28;20028;-48
2023/08/05 09:21:24;;;;;;;;;;;;;;;21.00;77.63;101185.38;5095871;28;20020;-49
2023/08/05 09:23:49;;;;;;;5.10;2.53;;;;;;;20.89;76.27;101190.19;5094353;28;19953;-53
2023/08/05 09:26:25;;;;;;;3.15;2.83;;;;;;;20.92;75.25;101175.50;5102411;28;20028;-49
2023/08/05 09:28:51;;;;;;;8.35;3.50;;;;;;;20.82;71.89;101180.28;5095422;28;20036;-50
2023/08/05 09:31:16;;;;;;;4.88;3.40;;;;;;;20.67;72.62;101182.88;5098355;28;20521;-51
2023/08/05 09:33:42;;;;;;;3.03;2.72;;;;;;;20.65;73.97;101171.41;5095575;28;20081;-50
2023/08/05 09:36:10;;;;;;;6.45;3.30;;;;;;;20.59;75.23;101172.09;5089287;28;20470;-51
2023/08/05 09:38:36;;;;;;;4.07;3.20;;;;;;;20.65;73.80;101160.59;5099047;28;20020;-52
2023/08/05 09:41:01;;;;;;;3.75;3.17;;;;;;;20.65;74.49;101160.59;5092851;28;20031;-51
2023/08/05 09:43:38;;;;;;;5.10;3.22;;;;;;;20.59;74.00;101167.53;5095846;28;20040;-52
2023/08/05 09:46:05;;;;;;;6.03;3.30;;;;;;;20.61;74.25;101161.97;5085124;28;20474;-51
2023/08/05 09:48:41;;;;;;;6.63;3.20;;;;;;;20.48;73.77;101160.69;5097713;28;20028;-50
2023/08/05 09:51:07;;;;;;;4.38;3.10;;;;;;;20.55;76.33;101141.06;5102433;28;20111;-53
2023/08/05 09:53:36;;;;;;;5.40;2.95;;;;;;;20.49;75.89;101148.84;5093157;28;20024;-52
2023/08/05 09:56:04;;;;;;;7.90;3.70;;;;;;;20.51;75.93;101141.41;5099093;28;20036;-51
2023/08/05 09:58:32;;;;;;;4.00;2.73;;;;;;;20.48;75.42;101143.63;5089592;28;20424;-51
2023/08/05 10:00:58;;;;;;;4.77;2.80;;;;;;;20.35;73.60;101138.81;5095204;28;20426;-52
2023/08/05 10:03:26;;;;;;;6.45;3.03;;;;;;;20.30;75.40;101130.38;5095154;28;20028;-51
2023/08/05 10:05:53;;;;;;;5.80;3.20;;;;;;;20.27;76.17;101130.75;5093006;28;20035;-52
2023/08/05 10:08:20;;;;;;;3.72;2.90;;;;;;;20.15;75.48;101124.88;5096565;28;20032;-50
2023/08/05 10:10:47;;;;;;;5.45;2.80;;;;;;;20.13;76.37;101126.91;5095712;28;20032;-52
2023/08/05 10:13:17;;;;;;;5.43;3.25;;;;;;;20.06;75.44;101129.44;5097000;28;20034;-51
2023/08/05 10:15:47;;;;;;;4.43;3.50;;;;;;;19.89;76.67;101125.13;5096342;28;20058;-52
2023/08/05 10:18:15;;;;;;;5.45;3.58;;;;;;;19.83;78.04;101123.09;5097526;28;20142;-50
2023/08/05 10:20:40;;;;;;;3.58;3.22;;;;;;;19.80;77.80;101124.31;5088081;28;20040;-53
2023/08/05 10:23:08;;;;;;;6.25;3.80;;;;;;;19.83;78.42;101123.94;5097368;28;20032;-53
2023/08/05 10:25:37;;;;;;;4.73;3.83;;;;;;;19.85;77.15;101124.63;5092644;28;20038;-51
2023/08/05 10:28:03;;;;;;;4.30;3.88;;;;;;;19.75;76.47;101115.88;5095901;28;20031;-54
2023/08/05 10:30:28;;;;;;;5.28;3.88;;;;;;;19.73;76.43;101116.03;5093114;28;20504;-53
2023/08/05 10:32:55;;;;;;;5.38;3.92;;;;;;;19.71;77.98;101119.91;5095376;28;20102;-51
2023/08/05 10:35:31;;;;;;;6.00;4.05;;;;;;;19.67;77.68;101111.31;5095322;28;20346;-50
2023/08/05 10:38:11;;;;;;;5.78;4.20;;;;;;;19.66;78.27;101103.41;5096992;28;20020;-51
2023/08/05 10:40:40;;;;;;;5.88;4.47;;;;;;;19.62;77.97;101100.22;5094179;28;20028;-51
2023/08/05 10:43:06;;;;;;;7.05;4.28;;;;;;;19.52;78.12;101095.00;5092927;28;20048;-50
2023/08/05 10:45:35;;;;;;;5.78;4.03;;;;;;;19.58;78.15;101097.03;5099116;28;20032;-51
2023/08/05 10:48:07;;;;;;;4.47;4.07;;;;;;;19.63;77.75;101101.03;5097141;28;20039;-51
2023/08/05 10:50:38;;;;;;;5.10;3.85;;;;;;;19.65;77.60;101097.19;5096374;28;20043;-54
2023/08/05 10:53:06;;;;;;;6.45;4.55;;;;;;;19.65;75.97;101094.50;5089902;28;20055;-51
2023/08/05 10:55:44;;;;;;;6.88;4.07;;;;;;;19.71;79.17;101101.88;5087249;28;20035;-51
2023/08/05 10:58:09;;;;;;;5.93;3.60;;;;;;;19.60;75.90;101097.69;5092325;28;20496;-52
2023/08/05 11:00:39;;;;;;;4.68;3.90;;;;;;;19.59;75.69;101090.59;5100496;28;20028;-51
2023/08/05 11:03:27;;;;;;;4.93;3.83;;;;;;;19.73;77.89;101088.22;5099453;28;20424;-50
2023/08/05 11:05:58;;;;;;;8.80;3.95;;;;;;;19.73;76.94;101090.91;5093903;28;20032;-51
2023/08/05 11:08:25;;;;;;;6.78;3.67;;;;;;;19.72;77.39;101089.25;5098912;28;20039;-49
2023/08/05 11:10:51;;;;;;;5.78;3.33;;;;;;;19.66;76.17;101085.38;5093973;28;20047;-50
2023/08/05 11:13:17;;;;;;;5.82;2.90;;;;;;;19.64;75.33;101073.94;5099348;28;20071;-49